Time;durP1;ratioP1;P1;durP2;ratioP2;P2;SDS_P1;SDS_P2;PMS_P1;PMS_P2;Temp;Humidity;BMP_temperature;BMP_pressure;BME280_temperature;BME280_humidity;BME280_pressure;Samples;Min_cycle;Max_cycle;Signal;HPM_P1;HPM_P2
2021/12/05 00:22:03;;;;;;;316.67;216.73;;;;;;;24.82;34.56;100749.63;5045249;28;20033;-43
2021/12/05 00:24:36;;;;;;;318.67;216.77;;;;;;;24.83;34.75;100733.88;5045818;28;20474;-43
2021/12/05 00:27:14;;;;;;;312.13;219.55;;;;;;;24.87;34.48;100724.25;5046342;28;20082;-43
2021/12/05 00:33:25;;;;;;;314.00;216.70;;;;;;;24.86;34.43;100715.53;5046411;28;20029;-42
2021/12/05 00:49:15;;;;;;;309.50;217.30;;;;;;;24.72;35.26;100709.34;5023077;28;20045;-43
2021/12/05 01:08:14;;;;;;;327.25;229.82;;;;;;;24.84;34.74;100746.13;5045721;28;20063;-42
2021/12/05 01:15:49;;;;;;;322.38;226.20;;;;;;;24.88;34.97;100715.53;5038140;28;20114;-42
2021/12/05 01:18:19;;;;;;;326.38;228.57;;;;;;;24.83;34.81;100717.22;5044444;28;20118;-42
2021/12/05 01:20:54;;;;;;;342.23;240.57;;;;;;;24.87;34.80;100719.00;5026885;28;20474;-43
2021/12/05 01:26:06;;;;;;;328.70;228.93;;;;;;;24.75;35.26;100747.81;5028526;28;20036;-42
2021/12/05 01:36:40;;;;;;;345.23;238.70;;;;;;;24.80;34.93;100730.38;5044829;28;20025;-43
2021/12/05 02:37:04;;;;;;;351.73;239.15;;;;;;;24.61;35.79;100843.00;5025087;28;20041;-45
2021/12/05 02:42:23;;;;;;;342.33;237.88;;;;;;;24.64;35.56;100852.63;5026751;28;20453;-43
2021/12/05 02:44:51;;;;;;;327.30;231.05;;;;;;;24.56;35.69;100852.56;5025131;28;20032;-43
2021/12/05 02:47:22;;;;;;;342.38;238.98;;;;;;;24.57;35.73;100854.31;5043399;28;20017;-42
2021/12/05 02:49:54;;;;;;;337.67;234.15;;;;;;;24.59;35.33;100831.59;5043590;28;20025;-42
2021/12/05 02:52:29;;;;;;;344.80;239.00;;;;;;;24.60;35.47;100819.34;5043490;28;20025;-42
2021/12/05 02:55:03;;;;;;;337.58;234.60;;;;;;;24.75;35.19;100808.16;5043077;28;20037;-43
2021/12/05 03:00:09;;;;;;;333.98;230.70;;;;;;;24.69;35.48;100791.44;5043726;28;20111;-43
2021/12/05 03:02:39;;;;;;;341.85;239.95;;;;;;;24.71;35.51;100781.03;5025825;28;20037;-43
2021/12/05 03:05:12;;;;;;;336.23;238.07;;;;;;;24.72;35.26;100772.28;5042889;28;20455;-45
2021/12/05 03:07:42;;;;;;;341.88;238.90;;;;;;;24.68;35.64;100780.97;5043519;28;20033;-43
2021/12/05 03:10:14;;;;;;;354.67;247.85;;;;;;;24.62;35.73;100775.66;5025414;28;20488;-43
2021/12/05 03:12:45;;;;;;;339.27;241.68;;;;;;;24.65;35.77;100788.81;5043132;28;20082;-43
2021/12/05 03:18:36;;;;;;;347.40;244.15;;;;;;;24.53;35.58;100777.38;5041885;28;20044;-43
2021/12/05 03:21:07;;;;;;;353.90;246.07;;;;;;;24.46;35.93;100779.94;5042772;28;20029;-43
2021/12/05 03:23:38;;;;;;;347.38;239.43;;;;;;;24.48;35.83;100776.44;5042445;28;20044;-42
2021/12/05 03:26:08;;;;;;;349.13;242.85;;;;;;;24.58;35.53;100780.00;5042969;28;20075;-43
2021/12/05 03:28:37;;;;;;;344.48;242.23;;;;;;;24.65;35.67;100799.28;5025056;28;20032;-42
2021/12/05 03:31:07;;;;;;;330.90;231.63;;;;;;;24.70;35.62;100788.00;5025814;28;20029;-43
2021/12/05 03:33:37;;;;;;;346.95;236.73;;;;;;;24.57;35.79;100792.22;5043111;28;20055;-42
2021/12/05 03:36:07;;;;;;;324.02;232.90;;;;;;;24.60;35.83;100786.16;5042650;28;20055;-42
2021/12/05 03:38:37;;;;;;;324.92;223.98;;;;;;;24.67;35.55;100782.69;5025622;28;20463;-43
2021/12/05 03:41:06;;;;;;;330.90;226.90;;;;;;;24.65;35.41;100784.44;5042942;28;20029;-45
2021/12/05 03:43:35;;;;;;;316.80;222.80;;;;;;;24.64;35.67;100782.69;5042904;28;20482;-42
2021/12/05 03:46:05;;;;;;;319.90;223.98;;;;;;;24.67;35.55;100790.56;5042685;28;20549;-42
2021/12/05 03:48:38;;;;;;;334.23;231.77;;;;;;;24.61;35.42;100790.53;5042277;28;20076;-42
2021/12/05 03:51:09;;;;;;;330.50;229.60;;;;;;;24.55;35.84;100800.97;5024948;28;20389;-42
2021/12/05 03:53:36;;;;;;;332.67;229.98;;;;;;;24.56;35.55;100808.88;5042871;28;20040;-43
2021/12/05 03:56:05;;;;;;;339.85;238.40;;;;;;;24.51;35.72;100802.69;5026021;28;20029;-44
2021/12/05 03:58:34;;;;;;;330.73;229.23;;;;;;;24.54;35.33;100818.47;5037703;28;20611;-42
2021/12/05 04:01:04;;;;;;;338.85;236.77;;;;;;;24.57;35.53;100821.06;5045751;28;20037;-43
2021/12/05 04:03:32;;;;;;;335.02;232.32;;;;;;;24.57;35.38;100823.69;5046149;28;20521;-43
2021/12/05 04:06:01;;;;;;;332.58;230.52;;;;;;;24.57;35.64;100821.06;5046323;28;20454;-43
2021/12/05 04:08:31;;;;;;;329.15;236.75;;;;;;;24.60;35.76;100820.25;5046482;28;20025;-43
2021/12/05 04:11:03;;;;;;;349.90;238.05;;;;;;;24.67;35.35;100829.91;5046294;28;20039;-43
2021/12/05 04:13:31;;;;;;;336.15;233.65;;;;;;;24.58;35.75;100829.84;5028599;28;20037;-43
2021/12/05 04:16:02;;;;;;;336.80;235.55;;;;;;;24.54;35.69;100836.81;5028235;28;20052;-42
2021/12/05 04:18:30;;;;;;;343.48;237.52;;;;;;;24.44;35.95;100845.44;5045972;28;20059;-43
2021/12/05 04:20:59;;;;;;;352.13;242.70;;;;;;;24.51;35.93;100863.00;5028215;28;20383;-43
2021/12/05 04:23:28;;;;;;;334.45;233.80;;;;;;;24.51;35.96;100851.63;5046320;28;20029;-43
2021/12/05 04:25:57;;;;;;;338.90;232.48;;;;;;;24.45;35.78;100835.84;5045898;28;20055;-42
2021/12/05 04:28:26;;;;;;;347.38;241.88;;;;;;;24.45;35.84;100823.59;5045698;28;20033;-42
2021/12/05 04:30:54;;;;;;;335.45;236.40;;;;;;;24.49;35.60;100827.16;5045650;28;20025;-43
2021/12/05 04:33:23;;;;;;;363.80;253.07;;;;;;;24.42;36.11;100832.34;5045104;28;20373;-43
2021/12/05 04:35:52;;;;;;;337.38;232.45;;;;;;;24.52;35.80;100842.88;5033109;28;20033;-43
2021/12/05 04:38:20;;;;;;;339.92;235.88;;;;;;;24.51;36.03;100846.38;5045301;28;20135;-42
2021/12/05 04:40:50;;;;;;;337.25;240.73;;;;;;;24.41;35.75;100848.03;5045628;28;20033;-43
2021/12/05 04:43:18;;;;;;;340.65;237.02;;;;;;;24.38;35.75;100859.38;5045473;28;20128;-42
2021/12/05 04:45:47;;;;;;;338.98;236.13;;;;;;;24.39;36.15;100855.03;5027448;28;20134;-42
2021/12/05 04:48:16;;;;;;;352.25;246.45;;;;;;;24.35;36.25;100856.72;5045814;28;20032;-42
2021/12/05 04:50:45;;;;;;;350.48;247.43;;;;;;;24.35;36.29;100861.97;5045258;28;20033;-43
2021/12/05 04:53:14;;;;;;;353.17;245.95;;;;;;;24.38;36.26;100874.25;5045308;28;20977;-42
2021/12/05 04:55:42;;;;;;;337.88;240.15;;;;;;;24.36;35.95;100857.63;5045401;28;20033;-43
2021/12/05 04:58:11;;;;;;;363.00;246.18;;;;;;;24.43;36.31;100868.19;5045279;28;20021;-43
2021/12/05 05:00:43;;;;;;;341.55;238.18;;;;;;;24.43;35.89;100867.28;5045349;28;20121;-42
2021/12/05 05:03:12;;;;;;;347.33;244.88;;;;;;;24.49;35.73;100871.72;5045028;28;20021;-43
2021/12/05 05:05:46;;;;;;;366.30;250.20;;;;;;;24.47;36.07;100876.94;5044903;28;20112;-42
2021/12/05 05:08:15;;;;;;;349.55;246.15;;;;;;;24.41;35.89;100869.91;5026930;28;20318;-42
2021/12/05 05:10:44;;;;;;;357.20;247.95;;;;;;;24.45;36.16;100873.44;5045320;28;20126;-43
2021/12/05 05:13:11;;;;;;;358.55;245.63;;;;;;;24.40;36.10;100883.88;5045270;28;20139;-43
2021/12/05 05:15:40;;;;;;;337.83;241.55;;;;;;;24.31;36.04;100888.16;5045174;28;20493;-42
2021/12/05 05:18:09;;;;;;;358.50;247.88;;;;;;;24.33;36.17;100895.16;5044629;28;20082;-43
2021/12/05 05:20:46;;;;;;;336.05;236.82;;;;;;;24.33;35.97;100894.28;5045082;28;20490;-42
2021/12/05 05:23:44;;;;;;;354.20;246.93;;;;;;;24.33;36.04;100889.03;5044626;28;20033;-44
2021/12/05 05:40:19;;;;;;;358.88;245.10;;;;;;;24.32;36.28;100919.63;5034096;28;20141;-43
2021/12/05 05:47:40;;;;;;;352.83;248.38;;;;;;;24.35;35.85;100943.25;5037442;28;20127;-43
2021/12/05 05:50:09;;;;;;;339.38;242.48;;;;;;;24.37;36.08;100938.91;5044335;28;20556;-43
2021/12/05 05:52:38;;;;;;;352.13;243.55;;;;;;;24.32;36.04;100945.84;5044256;28;20403;-43
2021/12/05 05:55:06;;;;;;;356.63;249.45;;;;;;;24.26;36.25;100948.41;5044247;28;20118;-43
2021/12/05 05:57:41;;;;;;;346.73;245.77;;;;;;;24.26;36.41;100944.00;5044062;28;20043;-44
2021/12/05 06:00:27;;;;;;;356.15;248.60;;;;;;;24.30;36.35;100947.56;5044011;28;20549;-43
2021/12/05 06:03:34;;;;;;;359.45;249.73;;;;;;;24.38;36.08;100935.41;5043855;28;20434;-43
2021/12/05 06:05:43;;;;;;;353.23;246.40;;;;;;;24.44;36.10;100929.34;5038257;28;20110;-42
2021/12/05 06:08:11;;;;;;;360.23;252.73;;;;;;;24.35;36.28;100935.38;5044134;28;20056;-42
2021/12/05 06:10:39;;;;;;;358.70;252.45;;;;;;;24.38;36.02;100932.78;5043979;28;20094;-43
2021/12/05 06:13:07;;;;;;;357.00;252.25;;;;;;;24.39;36.28;100936.31;5026264;28;20021;-42
2021/12/05 06:15:35;;;;;;;356.27;253.23;;;;;;;24.35;35.90;100942.38;5026091;28;20371;-43
2021/12/05 06:18:02;;;;;;;362.38;250.63;;;;;;;24.25;36.10;100950.13;5043111;28;20037;-44
2021/12/05 06:20:32;;;;;;;365.10;256.77;;;;;;;24.29;36.58;100953.69;5043606;28;20048;-44
2021/12/05 06:23:01;;;;;;;361.60;256.00;;;;;;;24.29;36.14;100953.69;5044243;28;20131;-44
2021/12/05 06:25:31;;;;;;;360.65;252.77;;;;;;;24.26;36.65;100940.53;5044037;28;20061;-45
2021/12/05 06:28:03;;;;;;;359.42;253.35;;;;;;;24.34;35.96;100938.84;5043956;28;20029;-43
2021/12/05 06:30:46;;;;;;;358.67;255.88;;;;;;;24.19;36.50;100946.56;5043971;28;20025;-43
2021/12/05 06:41:35;;;;;;;365.40;255.88;;;;;;;24.35;36.32;100965.97;5043705;28;20024;-43
2021/12/05 06:46:51;;;;;;;362.55;250.90;;;;;;;24.32;36.03;100971.19;5032540;28;20055;-46
2021/12/05 06:49:18;;;;;;;360.60;252.27;;;;;;;24.34;36.12;100970.31;5043610;28;20092;-47
2021/12/05 06:51:46;;;;;;;348.65;240.40;;;;;;;24.20;36.28;100977.16;5043209;28;20115;-50
2021/12/05 06:54:14;;;;;;;334.27;235.70;;;;;;;24.21;36.30;100979.81;5043471;28;20025;-44
2021/12/05 06:56:42;;;;;;;324.67;224.43;;;;;;;24.23;36.02;100985.06;5042689;28;20044;-45
2021/12/05 06:59:10;;;;;;;317.13;223.73;;;;;;;24.23;35.84;100979.81;5024366;28;20059;-43
2021/12/05 07:01:39;;;;;;;316.60;217.98;;;;;;;24.31;36.05;100986.03;5042467;28;20479;-42
2021/12/05 07:04:19;;;;;;;320.63;220.95;;;;;;;24.26;35.69;100983.34;5042753;28;20033;-42
2021/12/05 07:06:47;;;;;;;311.17;212.43;;;;;;;24.23;35.62;100985.06;5043280;28;20040;-42
2021/12/05 07:09:16;;;;;;;306.13;211.48;;;;;;;24.25;35.76;100993.81;5043431;28;20033;-43
2021/12/05 07:11:57;;;;;;;301.55;207.13;;;;;;;24.23;36.18;100990.28;5025661;28;20029;-45
2021/12/05 07:14:36;;;;;;;311.15;210.50;;;;;;;24.23;36.12;100985.06;5043120;28;20544;-44
2021/12/05 07:17:08;;;;;;;309.30;210.32;;;;;;;24.25;36.00;100991.19;5043080;28;20041;-47
2021/12/05 07:19:51;;;;;;;296.27;208.82;;;;;;;24.30;35.82;100994.75;5025985;28;20410;-46
2021/12/05 07:22:26;;;;;;;310.50;205.40;;;;;;;24.24;35.94;101005.16;5043140;28;20500;-49
2021/12/05 07:25:27;;;;;;;307.83;206.35;;;;;;;24.32;36.28;101010.50;5026285;28;20039;-47
2021/12/05 07:41:53;;;;;;;275.25;188.65;;;;;;;24.37;35.69;101028.03;5036454;28;20250;-43
2021/12/05 07:44:16;;;;;;;269.45;190.20;;;;;;;24.34;35.57;101027.13;5046125;28;20037;-44
2021/12/05 07:46:46;;;;;;;287.00;186.88;;;;;;;24.33;35.67;101022.75;5046801;28;20036;-44
2021/12/05 07:49:15;;;;;;;285.15;187.85;;;;;;;24.38;35.64;101021.94;5046774;28;20168;-43
2021/12/05 07:51:47;;;;;;;275.05;186.02;;;;;;;24.41;35.85;101024.59;5047028;28;20025;-43
2021/12/05 07:54:31;;;;;;;272.02;184.77;;;;;;;24.38;35.96;101029.81;5046504;28;20065;-44
2021/12/05 07:57:14;;;;;;;267.98;183.70;;;;;;;24.42;35.50;101034.22;5046475;28;20037;-42
2021/12/05 08:00:03;;;;;;;277.27;187.52;;;;;;;24.37;36.06;101043.78;5046502;28;20044;-43
2021/12/05 08:16:30;;;;;;;274.73;184.27;;;;;;;24.34;35.80;101048.97;5036170;28;20048;-43
2021/12/05 08:18:59;;;;;;;264.08;180.52;;;;;;;24.38;35.89;101053.41;5045815;28;20056;-43
2021/12/05 08:21:28;;;;;;;272.33;187.88;;;;;;;24.39;35.91;101049.94;5045515;28;20475;-43
2021/12/05 08:23:57;;;;;;;274.98;185.20;;;;;;;24.43;36.05;101050.84;5046264;28;20078;-44
2021/12/05 08:26:33;;;;;;;270.73;184.82;;;;;;;24.42;35.90;101057.84;5028487;28;20056;-42
2021/12/05 08:29:08;;;;;;;275.45;191.13;;;;;;;24.46;35.89;101050.88;5029123;28;20033;-42
2021/12/05 08:39:59;;;;;;;278.67;186.38;;;;;;;24.55;35.73;101071.09;5037064;28;20111;-42
2021/12/05 08:43:00;;;;;;;281.20;185.65;;;;;;;24.60;35.73;101064.16;5044879;28;20493;-42
2021/12/05 08:45:36;;;;;;;280.33;188.13;;;;;;;24.70;35.55;101078.31;5030597;28;20035;-42
2021/12/05 09:27:01;;;;;;;267.70;178.75;;;;;;;24.99;34.66;101099.59;5019517;28;20041;-44
2021/12/05 09:50:52;;;;;;;254.52;166.75;;;;;;;24.95;34.68;101118.84;5023525;28;20047;-43
2021/12/05 09:52:18;;;;;;;257.05;174.15;;;;;;;25.13;34.72;101141.75;5034158;28;20076;-42
2021/12/05 10:08:49;;;;;;;246.07;168.05;;;;;;;25.07;34.66;101162.69;5036222;28;20055;-42
2021/12/05 10:16:48;;;;;;;269.42;170.95;;;;;;;24.92;34.53;101188.75;5044093;28;20394;-42
2021/12/05 10:19:47;;;;;;;265.02;172.68;;;;;;;24.98;34.65;101176.59;5043342;28;20045;-42
2021/12/05 10:36:13;;;;;;;224.00;148.38;;;;;;;24.95;34.25;101189.69;5028439;28;20039;-42
2021/12/05 10:38:50;;;;;;;217.30;144.70;;;;;;;24.92;33.99;101196.63;5011381;28;20036;-44
2021/12/05 10:44:04;;;;;;;206.43;133.63;;;;;;;24.83;34.11;101192.13;5043871;28;20495;-47
2021/12/05 10:46:32;;;;;;;198.77;132.15;;;;;;;24.94;34.01;101205.41;5025989;28;20064;-44
2021/12/05 10:49:07;;;;;;;193.65;129.30;;;;;;;25.04;33.86;101209.91;5043821;28;20052;-46
2021/12/05 10:51:40;;;;;;;192.75;130.25;;;;;;;24.88;33.66;101219.31;5043055;28;20029;-44
2021/12/05 10:54:14;;;;;;;188.52;123.55;;;;;;;24.88;33.38;101206.19;5043604;28;20025;-43
2021/12/05 10:56:49;;;;;;;186.57;126.63;;;;;;;24.97;33.50;101203.72;5043480;28;20430;-43
2021/12/05 10:59:23;;;;;;;181.55;122.13;;;;;;;25.04;33.59;101196.78;5026176;28;20116;-45
2021/12/05 11:01:55;;;;;;;174.77;117.57;;;;;;;24.98;33.49;101192.34;5025479;28;20031;-44
2021/12/05 11:04:28;;;;;;;172.95;117.95;;;;;;;24.95;33.40;101194.94;5043045;28;20029;-45
2021/12/05 11:07:03;;;;;;;179.77;115.95;;;;;;;25.06;33.12;101189.81;5043257;28;20494;-45
2021/12/05 11:09:34;;;;;;;166.38;110.25;;;;;;;24.98;32.92;101181.84;5043479;28;20025;-46
2021/12/05 11:12:15;;;;;;;172.13;116.00;;;;;;;24.92;33.35;101197.50;5043358;28;20426;-44
2021/12/05 11:14:49;;;;;;;173.00;117.13;;;;;;;25.00;33.13;101185.34;5042867;28;20029;-46
2021/12/05 11:17:21;;;;;;;160.30;111.95;;;;;;;24.96;33.30;101194.06;5042817;28;20433;-43
2021/12/05 11:19:50;;;;;;;175.95;118.22;;;;;;;24.91;33.38;101182.63;5043179;28;20053;-43
2021/12/05 11:22:21;;;;;;;164.13;108.22;;;;;;;24.91;33.07;101174.75;5043564;28;20072;-43
2021/12/05 11:25:02;;;;;;;167.93;109.15;;;;;;;24.90;33.48;101180.88;5043374;28;20025;-43
2021/12/05 11:27:35;;;;;;;163.35;107.60;;;;;;;24.86;33.66;101179.06;5043327;28;20029;-45
2021/12/05 11:30:23;;;;;;;166.23;114.07;;;;;;;24.87;33.57;101165.97;5042399;28;20126;-42
2021/12/05 11:32:53;;;;;;;167.90;115.82;;;;;;;24.77;33.52;101168.47;5039379;28;20048;-43
2021/12/05 11:35:44;;;;;;;170.18;114.05;;;;;;;24.81;33.68;101178.13;5042917;28;20036;-42
2021/12/05 11:38:23;;;;;;;164.35;112.28;;;;;;;24.88;33.48;101190.47;5039673;28;20043;-43
2021/12/05 11:40:54;;;;;;;167.30;111.60;;;;;;;24.97;33.33;101187.97;5042863;28;20029;-43
2021/12/05 11:43:26;;;;;;;166.02;108.97;;;;;;;24.94;33.48;101176.53;5043142;28;20493;-42
2021/12/05 11:46:04;;;;;;;172.32;114.82;;;;;;;24.91;33.37;101180.00;5043068;28;20457;-43
2021/12/05 11:48:36;;;;;;;176.75;115.63;;;;;;;24.82;33.34;101165.03;5042665;28;20096;-45
2021/12/05 11:51:24;;;;;;;172.85;117.00;;;;;;;24.88;33.41;101172.09;5042958;28;20029;-43
2021/12/05 11:53:57;;;;;;;182.85;119.63;;;;;;;25.00;33.17;101164.34;5042842;28;20052;-43
2021/12/05 11:56:33;;;;;;;172.15;115.57;;;;;;;25.05;33.34;101171.41;5025210;28;20437;-42
2021/12/05 11:59:20;;;;;;;165.95;114.63;;;;;;;25.01;33.22;101187.13;5041850;28;20036;-42
2021/12/05 12:01:57;;;;;;;176.82;119.68;;;;;;;24.94;33.33;101181.78;5041546;28;20073;-44
2021/12/05 12:04:45;;;;;;;179.27;119.70;;;;;;;24.96;33.60;101165.22;5024248;28;20025;-43
2021/12/05 12:07:32;;;;;;;172.90;115.60;;;;;;;24.96;33.73;101164.31;5035544;28;20486;-44
2021/12/05 12:10:08;;;;;;;178.52;118.93;;;;;;;24.91;34.07;101160.75;5042369;28;20037;-44
2021/12/05 12:12:39;;;;;;;162.00;115.07;;;;;;;24.87;33.90;101165.97;5041846;28;20136;-42
2021/12/05 12:15:07;;;;;;;156.30;108.22;;;;;;;24.91;33.79;101160.75;5042474;28;20029;-45
2021/12/05 12:17:37;;;;;;;162.95;107.00;;;;;;;24.93;33.77;101161.63;5044504;28;20029;-43
2021/12/05 12:20:10;;;;;;;153.15;106.47;;;;;;;24.95;33.83;101170.41;5045642;28;20080;-43
2021/12/05 12:22:40;;;;;;;167.13;105.30;;;;;;;24.98;33.81;101168.75;5028905;28;20033;-42
2021/12/05 12:25:13;;;;;;;153.45;105.40;;;;;;;24.91;33.91;101160.75;5045919;28;20548;-43
2021/12/05 12:27:45;;;;;;;145.10;99.47;;;;;;;24.97;33.81;101164.34;5046215;28;20040;-43
2021/12/05 12:30:21;;;;;;;143.18;95.75;;;;;;;25.01;33.80;101160.00;5045439;28;20443;-43
2021/12/05 12:32:52;;;;;;;140.95;93.13;;;;;;;25.03;33.52;101159.16;5028129;28;20123;-42
2021/12/05 12:35:22;;;;;;;136.35;97.05;;;;;;;24.98;33.81;101146.84;5028083;28;20100;-43
2021/12/05 12:38:09;;;;;;;137.02;90.60;;;;;;;25.05;33.42;101151.31;5027888;28;20032;-43
2021/12/05 12:40:41;;;;;;;133.20;89.85;;;;;;;25.00;33.50;101151.22;5042642;28;20112;-43
2021/12/05 12:43:30;;;;;;;128.50;88.90;;;;;;;25.00;33.56;101139.88;5045681;28;20087;-42
2021/12/05 12:45:57;;;;;;;119.78;82.60;;;;;;;25.05;33.42;101147.78;5030814;28;20044;-44
2021/12/05 12:48:29;;;;;;;123.53;83.03;;;;;;;25.00;33.66;101142.50;5045501;28;20171;-44
2021/12/05 12:50:58;;;;;;;116.70;79.75;;;;;;;25.01;33.90;101144.25;5045348;28;20052;-43
2021/12/05 12:53:30;;;;;;;115.00;77.32;;;;;;;25.07;33.64;101159.19;5045912;28;20029;-43
2021/12/05 12:56:09;;;;;;;104.00;71.40;;;;;;;25.01;33.74;101154.75;5045426;28;20032;-44
2021/12/05 12:58:42;;;;;;;100.50;69.35;;;;;;;24.93;33.74;101164.25;5045287;28;20047;-43
2021/12/05 13:01:31;;;;;;;95.53;66.63;;;;;;;25.05;33.23;101160.91;5045441;28;20028;-42
2021/12/05 13:10:05;;;;;;;97.43;67.05;;;;;;;25.03;33.30;101174.03;5039552;28;20025;-42
2021/12/05 13:12:51;;;;;;;95.60;66.40;;;;;;;24.92;33.51;101159.88;5045023;28;20033;-43
2021/12/05 13:15:39;;;;;;;103.80;66.72;;;;;;;25.09;33.53;101163.59;5027811;28;20550;-42
2021/12/05 13:18:18;;;;;;;95.82;61.80;;;;;;;25.10;33.25;101177.59;5037453;28;20056;-43
2021/12/05 13:20:53;;;;;;;97.20;63.67;;;;;;;25.11;33.22;101195.97;5027390;28;20566;-42
2021/12/05 13:23:28;;;;;;;100.28;63.75;;;;;;;25.09;33.58;101192.47;5045047;28;20036;-42
2021/12/05 13:26:25;;;;;;;84.65;57.05;;;;;;;25.10;33.10;101193.34;5045107;28;20029;-42
2021/12/05 13:28:55;;;;;;;83.32;56.22;;;;;;;25.02;33.29;101199.38;5042616;28;20049;-42
2021/12/05 13:31:38;;;;;;;84.75;56.13;;;;;;;24.95;33.52;101200.19;5044989;28;20086;-42
2021/12/05 13:34:25;;;;;;;86.78;59.90;;;;;;;25.00;33.31;101200.22;5044719;28;20029;-42
2021/12/05 13:36:56;;;;;;;85.28;56.65;;;;;;;25.04;33.42;101181.03;5044518;28;20444;-42
2021/12/05 13:39:33;;;;;;;82.97;56.90;;;;;;;25.07;33.36;101198.56;5044684;28;20056;-43
2021/12/05 13:42:06;;;;;;;85.85;55.42;;;;;;;24.99;33.15;101198.47;5026909;28;20060;-43
2021/12/05 13:45:03;;;;;;;91.22;59.75;;;;;;;25.03;33.34;101190.66;5044791;28;20329;-46
2021/12/05 13:47:34;;;;;;;81.15;54.17;;;;;;;25.06;33.31;101197.69;5037026;28;20036;-44
2021/12/05 13:50:22;;;;;;;83.57;56.97;;;;;;;25.08;33.12;101205.56;5026760;28;20752;-42
2021/12/05 13:53:15;;;;;;;82.72;56.17;;;;;;;25.01;32.88;101215.13;5023015;28;20037;-43
2021/12/05 13:55:53;;;;;;;82.30;54.40;;;;;;;24.99;32.79;101227.34;5043494;28;20040;-42
2021/12/05 13:58:32;;;;;;;78.68;54.70;;;;;;;24.93;32.93;101214.13;5044148;28;20056;-43
2021/12/05 14:01:29;;;;;;;77.70;53.47;;;;;;;25.00;32.75;101202.84;5044226;28;20033;-43
2021/12/05 14:04:12;;;;;;;69.97;45.03;;;;;;;24.94;32.38;101216.78;5043988;28;20083;-46
2021/12/05 14:07:04;;;;;;;69.13;46.38;;;;;;;25.00;32.26;101219.47;5044072;28;20036;-44
2021/12/05 14:09:43;;;;;;;71.63;47.08;;;;;;;24.84;32.25;101212.25;5041609;28;20043;-43
2021/12/05 14:12:17;;;;;;;72.85;47.17;;;;;;;24.78;32.53;101218.31;5044391;28;21093;-44
2021/12/05 14:14:49;;;;;;;74.63;49.05;;;;;;;24.75;32.47;101228.75;5026027;28;20406;-43
2021/12/05 14:17:22;;;;;;;73.65;48.33;;;;;;;24.78;32.45;101228.81;5010239;28;20047;-45
2021/12/05 14:19:53;;;;;;;76.50;50.03;;;;;;;24.76;32.69;101245.41;5044140;28;20041;-43
2021/12/05 14:22:24;;;;;;;78.05;50.90;;;;;;;24.79;32.32;101230.56;5044197;28;20599;-46
2021/12/05 14:24:55;;;;;;;72.82;49.03;;;;;;;24.79;32.57;101237.59;5043977;28;20029;-43
2021/12/05 14:27:27;;;;;;;82.25;53.17;;;;;;;24.91;32.26;101239.47;5008790;28;20028;-44
2021/12/05 14:29:55;;;;;;;76.95;50.40;;;;;;;24.83;32.65;101247.22;5042619;28;20033;-43
2021/12/05 14:32:29;;;;;;;71.90;46.58;;;;;;;24.82;32.33;101240.25;5025193;28;20028;-43
2021/12/05 14:35:03;;;;;;;68.68;46.28;;;;;;;24.91;32.17;101257.84;5043549;28;20033;-43
2021/12/05 14:40:54;;;;;;;68.22;44.42;;;;;;;24.80;32.13;101248.09;5042216;28;20082;-45
2021/12/05 14:43:23;;;;;;;52.90;37.10;;;;;;;24.72;32.43;101250.59;5031384;28;20068;-43
2021/12/05 14:45:55;;;;;;;58.55;38.42;;;;;;;24.81;31.99;101256.84;5009193;28;20055;-42
2021/12/05 14:48:23;;;;;;;62.10;39.90;;;;;;;24.74;32.11;101255.84;5009060;28;20371;-43
2021/12/05 14:50:53;;;;;;;63.88;40.45;;;;;;;24.63;32.27;101260.03;5043265;28;20426;-43
2021/12/05 14:53:24;;;;;;;65.82;40.47;;;;;;;24.63;32.34;101268.81;5043253;28;20029;-43
2021/12/05 14:55:58;;;;;;;68.85;43.45;;;;;;;24.62;32.46;101259.19;5043542;28;20667;-44
2021/12/05 14:58:28;;;;;;;73.45;47.35;;;;;;;24.62;32.57;101260.91;5043350;28;20467;-43
2021/12/05 15:00:58;;;;;;;70.80;47.75;;;;;;;24.62;32.61;101276.63;5043420;28;20120;-43
2021/12/05 15:03:28;;;;;;;75.78;49.33;;;;;;;24.56;32.89;101280.94;5043540;28;20952;-45
2021/12/05 15:06:01;;;;;;;70.40;48.78;;;;;;;24.68;32.78;101280.22;5043647;28;20033;-43
2021/12/05 15:08:30;;;;;;;73.22;49.53;;;;;;;24.53;32.97;101275.66;5042884;28;20111;-43
2021/12/05 15:11:00;;;;;;;78.35;50.10;;;;;;;24.76;32.53;101290.88;5025183;28;20029;-46
2021/12/05 15:13:29;;;;;;;82.65;54.25;;;;;;;24.70;32.34;101286.41;5043265;28;20039;-45
2021/12/05 15:15:58;;;;;;;81.85;52.67;;;;;;;24.71;32.58;101289.94;5042924;28;20035;-42
2021/12/05 15:18:29;;;;;;;87.38;54.00;;;;;;;24.72;32.43;101303.06;5043014;28;20033;-42
2021/12/05 15:20:59;;;;;;;83.90;54.08;;;;;;;24.66;32.72;101296.81;5043206;28;20036;-42
2021/12/05 15:23:30;;;;;;;88.75;57.35;;;;;;;24.57;33.01;101295.81;5042689;28;20025;-44
2021/12/05 15:26:01;;;;;;;91.63;58.95;;;;;;;24.53;33.03;101293.13;5042794;28;20029;-43
2021/12/05 15:28:29;;;;;;;85.05;57.97;;;;;;;24.56;33.08;101294.06;5025424;28;20040;-43
2021/12/05 15:30:58;;;;;;;83.32;54.13;;;;;;;24.64;33.25;101294.19;5042918;28;20068;-43
2021/12/05 15:33:28;;;;;;;86.63;55.67;;;;;;;24.52;33.08;101293.97;5042794;28;20036;-42
2021/12/05 15:35:58;;;;;;;85.82;54.17;;;;;;;24.65;32.86;101295.94;5043154;28;20398;-42
2021/12/05 15:38:30;;;;;;;78.28;53.38;;;;;;;24.67;32.99;101301.22;5043459;28;20029;-42
2021/12/05 15:41:03;;;;;;;77.15;51.97;;;;;;;24.77;32.93;101307.50;5043017;28;20501;-43
2021/12/05 15:43:35;;;;;;;82.03;54.92;;;;;;;24.76;32.53;101311.00;5024959;28;20390;-43
2021/12/05 15:46:04;;;;;;;87.68;54.90;;;;;;;24.70;33.13;101309.16;5043183;28;20021;-43
2021/12/05 15:48:34;;;;;;;83.38;53.95;;;;;;;24.61;33.10;101309.88;5042790;28;20033;-43
2021/12/05 15:51:05;;;;;;;82.88;56.67;;;;;;;24.65;33.00;101302.91;5044017;28;20037;-43
2021/12/05 15:53:35;;;;;;;81.75;55.13;;;;;;;24.61;32.95;101303.72;5046841;28;20040;-43
2021/12/05 15:56:08;;;;;;;89.55;55.90;;;;;;;24.54;32.94;101303.66;5046840;28;20048;-43
2021/12/05 15:59:02;;;;;;;81.07;56.22;;;;;;;24.70;33.09;101311.78;5046857;28;20033;-43
2021/12/05 16:01:30;;;;;;;75.57;54.58;;;;;;;24.72;32.66;101324.06;5046599;28;20079;-43
2021/12/05 16:04:06;;;;;;;83.82;56.53;;;;;;;24.73;32.85;101315.34;5046637;28;20052;-43
2021/12/05 16:06:39;;;;;;;85.88;56.67;;;;;;;24.79;33.06;101318.91;5046713;28;20032;-43
2021/12/05 16:09:27;;;;;;;94.70;61.40;;;;;;;24.82;32.76;101313.72;5046329;28;20453;-43
2021/12/05 16:12:09;;;;;;;86.00;57.95;;;;;;;24.78;33.19;101314.53;5046079;28;20033;-43
2021/12/05 16:14:42;;;;;;;87.35;59.10;;;;;;;24.74;33.11;101316.19;5046541;28;20020;-43
2021/12/05 16:17:15;;;;;;;93.57;62.50;;;;;;;24.72;33.05;101316.19;5046085;28;20098;-46
2021/12/05 16:20:03;;;;;;;94.32;60.58;;;;;;;24.69;32.87;101310.84;5045782;28;20540;-43
2021/12/05 16:22:31;;;;;;;88.65;59.30;;;;;;;24.72;32.87;101318.81;5043054;28;20303;-43
2021/12/05 16:25:15;;;;;;;89.13;58.22;;;;;;;24.73;32.81;101319.72;5046462;28;20112;-42
2021/12/05 16:27:55;;;;;;;87.10;60.08;;;;;;;24.73;33.31;101323.19;5046257;28;20040;-42
2021/12/05 16:30:27;;;;;;;89.28;58.53;;;;;;;24.71;33.16;101326.66;5045779;28;20059;-42
2021/12/05 16:32:56;;;;;;;82.68;57.08;;;;;;;24.65;32.94;101324.81;5028400;28;20025;-45
2021/12/05 16:35:29;;;;;;;86.03;57.13;;;;;;;24.80;33.12;101333.81;5045784;28;20021;-42